createdAt,value
2019-03-06T00:01:29.584Z,46.45
2019-03-06T00:04:05.689Z,44.42
2019-03-06T00:06:40.081Z,45.45
2019-03-06T00:09:14.783Z,44.42
2019-03-06T00:11:48.849Z,44.03
2019-03-06T00:14:23.040Z,44.98
2019-03-06T00:16:57.368Z,43.40
2019-03-06T00:19:32.595Z,43.17
2019-03-06T00:22:09.494Z,41.75
2019-03-06T00:24:43.786Z,41.85
2019-03-06T00:27:17.709Z,43.30
2019-03-06T00:29:52.022Z,42.85
2019-03-06T00:32:26.107Z,41.42
2019-03-06T00:35:01.975Z,41.58
2019-03-06T00:37:37.305Z,42.38
2019-03-06T00:40:19.830Z,42.45
2019-03-06T00:42:54.178Z,43.65
2019-03-06T00:45:28.762Z,42.67
2019-03-06T00:48:03.180Z,41.60
2019-03-06T00:50:38.717Z,41.85
2019-03-06T00:53:13.121Z,42.65
2019-03-06T00:55:47.601Z,42.20
2019-03-06T00:58:21.947Z,41.00
2019-03-06T01:00:57.756Z,42.17
2019-03-06T01:03:33.116Z,42.55
2019-03-06T01:06:07.466Z,42.17
2019-03-06T01:08:42.957Z,42.73
2019-03-06T01:11:17.230Z,44.83
2019-03-06T01:13:51.490Z,43.10
2019-03-06T01:16:25.981Z,42.40
2019-03-06T01:19:00.162Z,43.80
2019-03-06T01:21:34.456Z,44.10
2019-03-06T01:24:08.886Z,44.08
2019-03-06T01:26:43.023Z,43.02
2019-03-06T01:29:17.381Z,42.70
2019-03-06T01:31:51.879Z,42.95
2019-03-06T01:34:51.112Z,44.08
2019-03-06T01:37:38.867Z,47.85
2019-03-06T01:40:21.735Z,47.83
2019-03-06T01:43:10.761Z,46.33
2019-03-06T01:45:45.024Z,46.35
2019-03-06T01:48:19.625Z,44.05
2019-03-06T01:50:54.142Z,45.73
2019-03-06T01:53:28.140Z,45.63
2019-03-06T01:56:02.627Z,45.65
2019-03-06T01:58:37.091Z,47.33
2019-03-06T02:01:12.849Z,45.90
2019-03-06T02:03:47.057Z,46.92
2019-03-06T02:06:21.723Z,44.77
2019-03-06T02:08:57.009Z,47.05
2019-03-06T02:11:31.299Z,44.93
2019-03-06T02:14:06.047Z,45.10
2019-03-06T02:16:40.474Z,44.03
2019-03-06T02:19:14.968Z,45.33
2019-03-06T02:21:49.242Z,45.63
2019-03-06T02:24:23.516Z,44.40
2019-03-06T02:26:57.828Z,42.80
2019-03-06T02:29:32.170Z,43.80
2019-03-06T02:32:06.536Z,43.10
2019-03-06T02:34:40.905Z,41.85
2019-03-06T02:37:15.276Z,44.80
2019-03-06T02:39:49.580Z,43.08
2019-03-06T02:42:23.792Z,42.88
2019-03-06T02:44:59.049Z,43.40
2019-03-06T02:47:33.191Z,42.73
2019-03-06T02:50:07.514Z,43.95
2019-03-06T02:52:41.874Z,42.85
2019-03-06T02:55:16.510Z,42.75
2019-03-06T02:58:09.310Z,43.13
2019-03-06T03:04:03.692Z,41.63
2019-03-06T03:06:42.279Z,46.35
2019-03-06T03:09:21.447Z,46.25
2019-03-06T03:11:55.801Z,45.23
2019-03-06T03:14:30.088Z,45.08
2019-03-06T03:17:06.629Z,45.50
2019-03-06T03:19:40.975Z,44.80
2019-03-06T03:22:15.203Z,44.73
2019-03-06T03:24:49.440Z,45.28
2019-03-06T03:27:23.695Z,45.98
2019-03-06T03:29:58.231Z,46.15
2019-03-06T03:32:32.737Z,44.15
2019-03-06T03:35:07.247Z,45.38
2019-03-06T03:37:41.708Z,45.30
2019-03-06T03:40:18.131Z,43.17
2019-03-06T03:42:52.800Z,44.13
2019-03-06T03:45:27.169Z,43.55
2019-03-06T03:48:01.647Z,44.88
2019-03-06T03:50:36.035Z,44.67
2019-03-06T03:53:10.312Z,44.70
2019-03-06T03:55:45.046Z,44.93
2019-03-06T03:58:19.719Z,45.78
2019-03-06T04:00:53.953Z,45.88
2019-03-06T04:03:28.716Z,45.38
2019-03-06T04:06:02.915Z,47.20
2019-03-06T04:08:38.467Z,51.20
2019-03-06T04:11:12.802Z,53.68
2019-03-06T04:13:47.125Z,53.95
2019-03-06T04:16:22.525Z,56.25
2019-03-06T04:18:56.873Z,59.33
2019-03-06T04:21:31.266Z,62.48
2019-03-06T04:24:05.834Z,62.13
2019-03-06T04:26:40.090Z,62.25
2019-03-06T04:29:15.597Z,64.70
2019-03-06T04:31:51.180Z,64.65
2019-03-06T04:34:25.305Z,63.98
2019-03-06T04:36:59.619Z,63.13
2019-03-06T04:39:33.972Z,64.22
2019-03-06T04:42:08.098Z,61.63
2019-03-06T04:44:42.296Z,66.07
2019-03-06T04:47:16.400Z,63.40
2019-03-06T04:49:52.941Z,65.37
2019-03-06T04:52:26.515Z,64.20
2019-03-06T04:55:00.624Z,68.87
2019-03-06T04:57:34.867Z,70.62
2019-03-06T05:00:10.129Z,73.78
2019-03-06T05:02:44.544Z,76.15
2019-03-06T05:05:18.836Z,77.78
2019-03-06T05:07:54.047Z,71.67
2019-03-06T05:10:30.210Z,69.60
2019-03-06T05:13:04.560Z,68.72
2019-03-06T05:15:38.644Z,67.22
2019-03-06T05:18:32.803Z,67.37
2019-03-06T05:21:07.527Z,66.17
2019-03-06T05:23:42.026Z,66.87
2019-03-06T05:26:16.242Z,68.33
2019-03-06T05:28:50.319Z,64.30
2019-03-06T05:31:24.524Z,64.72
2019-03-06T05:33:58.796Z,62.13
2019-03-06T05:36:53.941Z,61.15
2019-03-06T05:39:28.335Z,60.45
2019-03-06T05:42:03.077Z,59.33
2019-03-06T05:44:37.381Z,59.90
2019-03-06T05:47:11.647Z,58.13
2019-03-06T05:49:46.896Z,56.40
2019-03-06T05:52:21.048Z,56.60
2019-03-06T05:54:55.134Z,56.37
2019-03-06T05:57:29.683Z,56.08
2019-03-06T06:00:04.105Z,55.48
2019-03-06T06:02:38.310Z,53.60
2019-03-06T06:05:14.323Z,52.65
2019-03-06T06:07:48.601Z,52.53
2019-03-06T06:10:22.812Z,52.60
2019-03-06T06:12:57.431Z,51.05
2019-03-06T06:15:31.885Z,49.73
2019-03-06T06:18:06.404Z,48.13
2019-03-06T06:20:40.681Z,49.33
2019-03-06T06:23:33.247Z,46.88
2019-03-06T06:26:07.907Z,47.05
2019-03-06T06:28:42.285Z,46.00
2019-03-06T06:31:16.397Z,44.15
2019-03-06T06:33:50.609Z,42.53
2019-03-06T06:36:24.728Z,42.23
2019-03-06T06:39:00.215Z,40.63
2019-03-06T06:41:35.549Z,41.42
2019-03-06T06:44:09.724Z,38.88
2019-03-06T06:46:43.817Z,40.17
2019-03-06T06:49:18.577Z,39.88
2019-03-06T06:52:22.437Z,38.88
2019-03-06T06:55:32.478Z,38.17
2019-03-06T06:58:35.694Z,36.58
2019-03-06T07:02:17.076Z,36.08
2019-03-06T07:05:43.455Z,36.23
2019-03-06T07:08:39.248Z,36.00
2019-03-06T07:11:22.403Z,34.90
2019-03-06T07:14:13.696Z,33.40
2019-03-06T07:17:27.612Z,33.73
2019-03-06T07:20:26.577Z,32.93
2019-03-06T07:23:20.264Z,32.35
2019-03-06T07:26:08.337Z,32.00
2019-03-06T07:29:01.455Z,31.05
2019-03-06T07:32:03.565Z,30.55
2019-03-06T07:34:50.647Z,29.70
2019-03-06T07:37:42.303Z,28.80
2019-03-06T07:40:23.195Z,28.32
2019-03-06T07:43:10.430Z,28.62
2019-03-06T07:46:02.224Z,26.80
2019-03-06T07:48:58.507Z,27.00
2019-03-06T07:51:39.140Z,26.57
2019-03-06T07:54:32.190Z,25.77
2019-03-06T07:57:37.726Z,25.68
2019-03-06T08:00:23.069Z,25.32
2019-03-06T08:03:05.702Z,25.72
2019-03-06T08:05:40.486Z,24.45
2019-03-06T08:08:14.859Z,24.43
2019-03-06T08:10:49.970Z,23.90
2019-03-06T08:13:55.444Z,24.95
2019-03-06T08:16:48.495Z,24.82
2019-03-06T08:19:41.353Z,23.02
2019-03-06T08:25:30.369Z,23.25
2019-03-06T08:28:04.782Z,23.42
2019-03-06T08:30:40.710Z,22.77
2019-03-06T08:33:18.201Z,23.15
2019-03-06T08:35:51.573Z,23.80
2019-03-06T08:38:25.849Z,22.85
2019-03-06T08:41:04.610Z,22.98
2019-03-06T08:43:37.494Z,22.02
2019-03-06T08:46:37.632Z,21.97
2019-03-06T08:49:30.436Z,23.92
2019-03-06T08:52:22.580Z,21.97
2019-03-06T08:55:11.104Z,22.90
2019-03-06T08:58:16.613Z,21.65
2019-03-06T09:01:13.104Z,21.33
2019-03-06T09:04:05.423Z,22.22
2019-03-06T09:06:50.500Z,22.22
2019-03-06T09:09:52.689Z,21.48
2019-03-06T09:12:48.110Z,21.50
2019-03-06T09:15:50.516Z,21.82
2019-03-06T09:18:46.864Z,22.32
2019-03-06T09:21:40.062Z,21.68
2019-03-06T09:24:38.739Z,22.85
2019-03-06T09:27:22.520Z,22.65
2019-03-06T09:30:30.756Z,22.80
2019-03-06T09:33:22.519Z,21.93
2019-03-06T09:36:13.747Z,21.17
2019-03-06T09:38:58.109Z,21.25
2019-03-06T09:41:47.335Z,20.85
2019-03-06T09:44:58.901Z,21.05
2019-03-06T09:47:45.453Z,21.40
2019-03-06T09:50:44.810Z,21.05
2019-03-06T09:53:41.143Z,19.60
2019-03-06T09:56:37.016Z,20.23
2019-03-06T09:59:36.061Z,19.32
2019-03-06T10:02:27.642Z,20.55
2019-03-06T10:05:18.902Z,19.87
2019-03-06T10:08:03.428Z,19.90
2019-03-06T10:10:50.435Z,19.30
2019-03-06T10:13:30.228Z,19.85
2019-03-06T10:16:23.474Z,19.40
2019-03-06T10:19:08.341Z,19.20
2019-03-06T10:21:42.830Z,19.45
2019-03-06T10:24:17.217Z,19.00
2019-03-06T10:26:51.711Z,19.32
2019-03-06T10:29:25.921Z,18.35
2019-03-06T10:32:00.364Z,18.05
2019-03-06T10:34:35.933Z,18.17
2019-03-06T10:37:11.267Z,18.17
2019-03-06T10:39:45.695Z,18.50
2019-03-06T10:42:20.468Z,17.62
2019-03-06T10:44:54.703Z,18.57
2019-03-06T10:47:28.978Z,20.12
2019-03-06T10:50:03.470Z,18.23
2019-03-06T10:52:37.659Z,17.60
2019-03-06T10:55:13.560Z,17.07
2019-03-06T10:57:48.119Z,17.15
2019-03-06T11:00:28.511Z,16.67
2019-03-06T11:03:02.903Z,16.23
2019-03-06T11:05:37.532Z,17.07
2019-03-06T11:08:12.117Z,17.02
2019-03-06T11:10:47.389Z,16.37
2019-03-06T11:13:21.909Z,16.37
2019-03-06T11:15:56.645Z,16.23
2019-03-06T11:18:31.178Z,16.37
2019-03-06T11:21:05.589Z,15.98
2019-03-06T11:23:40.220Z,15.85
2019-03-06T11:26:14.550Z,15.18
2019-03-06T11:28:48.801Z,16.62
2019-03-06T11:31:23.199Z,16.20
2019-03-06T11:33:57.532Z,15.13
2019-03-06T11:36:31.622Z,15.23
2019-03-06T11:39:07.444Z,14.87
2019-03-06T11:41:42.279Z,14.75
2019-03-06T11:44:17.193Z,14.03
2019-03-06T11:46:52.994Z,15.43
2019-03-06T11:49:27.286Z,13.98
2019-03-06T11:52:01.584Z,14.38
2019-03-06T11:54:36.134Z,15.00
2019-03-06T11:57:10.549Z,14.23
2019-03-06T11:59:44.746Z,15.00
2019-03-06T12:02:19.166Z,14.53
2019-03-06T12:04:53.372Z,14.50
2019-03-06T12:07:29.480Z,14.98
2019-03-06T12:10:04.540Z,15.68
2019-03-06T12:12:39.982Z,15.68
2019-03-06T12:15:15.173Z,15.18
2019-03-06T12:17:49.487Z,15.20
2019-03-06T12:20:23.802Z,14.83
2019-03-06T12:22:58.396Z,15.60
2019-03-06T12:25:32.867Z,16.32
2019-03-06T12:28:08.609Z,16.02
2019-03-06T12:30:43.586Z,16.77
2019-03-06T12:33:32.175Z,15.88
2019-03-06T12:36:06.496Z,15.43
2019-03-06T12:38:40.894Z,16.00
2019-03-06T12:41:16.509Z,15.63
2019-03-06T12:43:51.086Z,16.32
2019-03-06T12:46:27.671Z,14.87
2019-03-06T12:49:27.592Z,14.55
2019-03-06T12:52:03.454Z,15.00
2019-03-06T12:54:37.820Z,13.85
2019-03-06T12:57:12.212Z,13.95
2019-03-06T12:59:46.393Z,14.10
2019-03-06T13:02:20.959Z,14.23
2019-03-06T13:04:55.348Z,14.28
2019-03-06T13:07:29.979Z,13.00
2019-03-06T13:10:04.600Z,13.93
2019-03-06T13:12:39.161Z,14.47
2019-03-06T13:15:16.335Z,13.40
2019-03-06T13:17:51.006Z,14.43
2019-03-06T13:20:25.736Z,13.35
2019-03-06T13:23:00.945Z,13.95
2019-03-06T13:25:35.464Z,13.20
2019-03-06T13:28:10.036Z,14.05
2019-03-06T13:30:44.713Z,13.10
2019-03-06T13:33:38.459Z,13.00
2019-03-06T13:36:13.222Z,12.18
2019-03-06T13:38:54.984Z,13.58
2019-03-06T13:41:24.973Z,12.82
2019-03-06T13:44:00.739Z,12.98
2019-03-06T13:46:35.674Z,12.60
2019-03-06T13:49:10.355Z,13.65
2019-03-06T13:51:45.858Z,12.30
2019-03-06T13:54:20.201Z,12.60
2019-03-06T13:56:56.105Z,11.75
2019-03-06T13:59:30.902Z,12.33
2019-03-06T14:02:05.482Z,12.23
2019-03-06T14:04:39.902Z,12.40
2019-03-06T14:07:14.525Z,12.37
2019-03-06T14:09:48.805Z,11.70
2019-03-06T14:12:23.307Z,12.15
2019-03-06T14:14:57.781Z,12.18
2019-03-06T14:17:32.330Z,12.88
2019-03-06T14:20:06.895Z,12.28
2019-03-06T14:22:41.449Z,13.08
2019-03-06T14:25:16.267Z,12.65
2019-03-06T14:27:50.779Z,12.33
2019-03-06T14:30:25.564Z,12.00
2019-03-06T14:33:00.476Z,12.55
2019-03-06T14:35:35.021Z,12.23
2019-03-06T14:38:10.377Z,12.15
2019-03-06T14:40:45.451Z,12.43
2019-03-06T14:43:20.789Z,12.63
2019-03-06T14:45:59.487Z,12.82
2019-03-06T14:48:34.265Z,12.95
2019-03-06T14:51:09.704Z,12.80
2019-03-06T14:53:44.378Z,13.40
2019-03-06T14:56:18.930Z,12.88
2019-03-06T14:58:53.440Z,12.88
2019-03-06T15:01:29.711Z,13.62
2019-03-06T15:04:04.146Z,13.28
2019-03-06T15:06:38.673Z,13.95
2019-03-06T15:09:33.429Z,13.03
2019-03-06T15:12:08.053Z,13.38
2019-03-06T15:14:42.909Z,13.18
2019-03-06T15:17:17.564Z,13.68
2019-03-06T15:19:52.137Z,13.75
2019-03-06T15:22:26.682Z,15.30
2019-03-06T15:25:01.305Z,14.78
2019-03-06T15:27:35.974Z,14.87
2019-03-06T15:30:11.888Z,16.12
2019-03-06T15:32:46.495Z,15.05
2019-03-06T15:35:22.963Z,15.32
2019-03-06T15:37:58.759Z,15.32
2019-03-06T15:40:33.994Z,15.40
2019-03-06T15:43:10.868Z,16.52
2019-03-06T15:45:46.921Z,15.60
2019-03-06T15:48:21.797Z,17.35
2019-03-06T15:50:56.662Z,15.85
2019-03-06T15:53:31.261Z,16.90
2019-03-06T15:56:05.719Z,17.15
2019-03-06T15:58:40.773Z,16.62
2019-03-06T16:01:15.339Z,16.25
2019-03-06T16:03:49.801Z,15.83
2019-03-06T16:06:25.396Z,17.52
2019-03-06T16:09:01.601Z,16.48
2019-03-06T16:11:37.559Z,17.60
2019-03-06T16:14:12.274Z,16.52
2019-03-06T16:16:46.640Z,17.92
2019-03-06T16:19:22.246Z,16.85
2019-03-06T16:21:56.665Z,18.35
2019-03-06T16:24:30.963Z,17.87
2019-03-06T16:27:06.492Z,17.17
2019-03-06T16:29:41.021Z,20.92
2019-03-06T16:32:16.603Z,22.70
2019-03-06T16:34:51.373Z,22.58
2019-03-06T16:37:25.968Z,25.08
2019-03-06T16:40:00.638Z,24.90
2019-03-06T16:42:35.508Z,24.77
2019-03-06T16:45:10.314Z,25.30
2019-03-06T16:47:44.990Z,25.15
2019-03-06T16:50:20.097Z,27.07
2019-03-06T16:52:54.602Z,27.65
2019-03-06T16:55:30.422Z,29.55
2019-03-06T16:58:05.649Z,29.27
2019-03-06T17:00:40.449Z,29.42
2019-03-06T17:03:14.836Z,31.00
2019-03-06T17:05:49.430Z,32.00
2019-03-06T17:08:24.293Z,32.60
2019-03-06T17:10:59.057Z,32.20
2019-03-06T17:13:33.622Z,29.80
2019-03-06T17:16:08.301Z,28.52
2019-03-06T17:18:42.633Z,29.70
2019-03-06T17:21:16.934Z,30.62
2019-03-06T17:23:51.429Z,30.37
2019-03-06T17:26:26.071Z,30.40
2019-03-06T17:29:02.146Z,29.55
2019-03-06T17:31:36.500Z,30.00
2019-03-06T17:34:11.072Z,30.45
2019-03-06T17:36:45.592Z,30.95
2019-03-06T17:39:21.812Z,29.52
2019-03-06T17:41:56.274Z,30.00
2019-03-06T17:44:31.501Z,28.10
2019-03-06T17:47:06.831Z,29.48
2019-03-06T17:49:41.004Z,30.48
2019-03-06T17:52:16.949Z,30.15
2019-03-06T17:54:51.148Z,30.82
2019-03-06T17:57:25.367Z,31.10
2019-03-06T17:59:59.659Z,30.50
2019-03-06T18:02:34.178Z,32.48
2019-03-06T18:05:09.186Z,31.33
2019-03-06T18:07:43.486Z,33.25
2019-03-06T18:10:19.456Z,33.08
2019-03-06T18:12:53.649Z,31.57
2019-03-06T18:15:28.530Z,34.18
2019-03-06T18:18:02.820Z,33.38
2019-03-06T18:20:37.297Z,33.30
2019-03-06T18:23:11.996Z,32.08
2019-03-06T18:29:27.449Z,33.98
2019-03-06T18:32:01.888Z,33.55
2019-03-06T18:34:36.398Z,34.33
2019-03-06T18:37:10.609Z,34.60
2019-03-06T18:39:45.058Z,34.92
2019-03-06T18:42:19.315Z,36.13
2019-03-06T18:44:54.188Z,34.83
2019-03-06T18:47:29.608Z,37.50
2019-03-06T18:50:03.937Z,37.28
2019-03-06T18:52:38.576Z,38.25
2019-03-06T18:55:13.023Z,38.17
2019-03-06T18:57:47.532Z,39.38
2019-03-06T19:00:23.098Z,38.10
2019-03-06T19:02:57.308Z,40.00
2019-03-06T19:05:31.619Z,40.25
2019-03-06T19:08:06.087Z,39.35
2019-03-06T19:10:40.737Z,37.93
2019-03-06T19:13:14.935Z,38.92
2019-03-06T19:15:49.515Z,39.65
2019-03-06T19:18:23.791Z,38.85
2019-03-06T19:20:58.313Z,39.75
2019-03-06T19:23:32.487Z,39.20
2019-03-06T19:26:07.021Z,39.75
2019-03-06T19:28:41.292Z,39.90
2019-03-06T19:31:15.500Z,40.83
2019-03-06T19:33:49.899Z,40.55
2019-03-06T19:36:24.294Z,41.83
2019-03-06T19:38:58.551Z,40.55
2019-03-06T19:41:32.889Z,41.30
2019-03-06T19:44:07.233Z,41.75
2019-03-06T19:46:41.440Z,40.43
2019-03-06T19:49:15.862Z,42.45
2019-03-06T19:51:51.693Z,41.60
2019-03-06T19:54:27.364Z,40.50
2019-03-06T19:57:01.532Z,43.35
2019-03-06T19:59:35.574Z,41.28
2019-03-06T20:02:09.955Z,41.45
2019-03-06T20:04:44.301Z,40.33
2019-03-06T20:07:18.523Z,42.75
2019-03-06T20:09:52.817Z,42.53
2019-03-06T20:12:27.178Z,42.53
2019-03-06T20:15:01.645Z,41.45
2019-03-06T20:17:36.362Z,42.08
2019-03-06T20:20:10.837Z,43.38
2019-03-06T20:22:45.147Z,41.90
2019-03-06T20:25:20.173Z,42.80
2019-03-06T20:27:54.532Z,42.55
2019-03-06T20:30:29.351Z,43.48
2019-03-06T20:33:03.540Z,41.90
2019-03-06T20:35:38.858Z,41.23
2019-03-06T20:38:13.059Z,42.00
2019-03-06T20:40:47.300Z,41.70
2019-03-06T20:43:22.639Z,42.15
2019-03-06T20:45:56.982Z,44.75
2019-03-06T20:48:31.250Z,40.88
2019-03-06T20:51:05.695Z,44.70
2019-03-06T20:53:39.986Z,43.52
2019-03-06T20:56:14.245Z,43.83
2019-03-06T20:58:49.759Z,43.35
2019-03-06T21:01:24.540Z,43.38
2019-03-06T21:03:58.823Z,43.42
2019-03-06T21:06:34.675Z,40.63
2019-03-06T21:09:09.800Z,43.42
2019-03-06T21:11:44.288Z,44.30
2019-03-06T21:14:19.458Z,44.18
2019-03-06T21:16:53.854Z,41.50
2019-03-06T21:19:27.753Z,43.38
2019-03-06T21:22:02.238Z,43.87
2019-03-06T21:24:37.678Z,42.73
2019-03-06T21:27:12.212Z,44.33
2019-03-06T21:29:46.262Z,44.55
2019-03-06T21:32:21.899Z,42.48
2019-03-06T21:34:56.000Z,43.28
2019-03-06T21:37:30.179Z,43.40
2019-03-06T21:40:04.624Z,42.03
2019-03-06T21:42:38.792Z,43.73
2019-03-06T21:45:13.167Z,42.80
2019-03-06T21:47:47.576Z,43.23
2019-03-06T21:50:21.686Z,43.33
2019-03-06T21:52:56.058Z,40.58
2019-03-06T21:55:30.282Z,43.15
2019-03-06T21:58:04.448Z,41.90
2019-03-06T22:00:38.872Z,42.23
2019-03-06T22:03:13.377Z,41.58
2019-03-06T22:05:48.000Z,42.30
2019-03-06T22:08:22.095Z,41.63
2019-03-06T22:10:56.581Z,41.25
2019-03-06T22:13:31.161Z,43.48
2019-03-06T22:16:06.247Z,42.50
2019-03-06T22:18:40.489Z,43.75
2019-03-06T22:21:14.884Z,43.25
2019-03-06T22:23:49.017Z,44.77
2019-03-06T22:26:23.370Z,44.18
2019-03-06T22:28:55.835Z,41.65
2019-03-06T22:31:30.209Z,43.02
2019-03-06T22:34:04.441Z,43.83
2019-03-06T22:36:38.572Z,43.40
2019-03-06T22:39:13.010Z,42.40
2019-03-06T22:41:47.377Z,42.25
2019-03-06T22:44:21.465Z,42.23
2019-03-06T22:46:55.573Z,41.53
2019-03-06T22:49:29.540Z,41.55
2019-03-06T22:52:03.485Z,41.45
2019-03-06T22:54:37.736Z,41.00
2019-03-06T22:57:12.038Z,42.00
2019-03-06T22:59:46.429Z,42.93
2019-03-06T23:02:22.827Z,40.23
2019-03-06T23:04:57.983Z,41.77
2019-03-06T23:07:32.389Z,41.18
2019-03-06T23:10:07.081Z,40.12
2019-03-06T23:12:42.502Z,41.10
2019-03-06T23:15:16.879Z,41.48
2019-03-06T23:17:51.271Z,41.13
2019-03-06T23:20:25.573Z,41.53
2019-03-06T23:22:59.955Z,40.48
2019-03-06T23:25:34.339Z,41.88
2019-03-06T23:28:08.911Z,41.60
2019-03-06T23:30:43.035Z,39.98
2019-03-06T23:33:17.569Z,40.85
2019-03-06T23:35:51.647Z,40.00
2019-03-06T23:38:25.808Z,41.20
2019-03-06T23:41:00.203Z,41.05
2019-03-06T23:43:34.411Z,40.35
2019-03-06T23:46:08.651Z,40.50
2019-03-06T23:48:43.116Z,41.88
2019-03-06T23:51:47.879Z,41.30
2019-03-06T23:54:22.238Z,41.65
2019-03-06T23:56:56.728Z,40.52
2019-03-06T23:59:31.278Z,41.60
